sensor_id;sensor_type;location;lat;lon;timestamp;P1;durP1;ratioP1;P2;durP2;ratioP2
35128;SDS011;21301;43.626;10.580;2023-08-17T00:00:24;8.30;;;4.20;;
35128;SDS011;21301;43.626;10.580;2023-08-17T00:02:50;9.63;;;3.65;;
35128;SDS011;21301;43.626;10.580;2023-08-17T00:05:16;8.02;;;3.78;;
35128;SDS011;21301;43.626;10.580;2023-08-17T00:07:43;9.30;;;4.90;;
35128;SDS011;21301;43.626;10.580;2023-08-17T00:10:09;8.32;;;4.78;;
35128;SDS011;21301;43.626;10.580;2023-08-17T00:12:36;7.28;;;4.18;;
35128;SDS011;21301;43.626;10.580;2023-08-17T00:15:05;4.85;;;3.30;;
35128;SDS011;21301;43.626;10.580;2023-08-17T00:17:32;7.50;;;3.85;;
35128;SDS011;21301;43.626;10.580;2023-08-17T00:19:59;8.60;;;4.22;;
35128;SDS011;21301;43.626;10.580;2023-08-17T00:22:24;6.57;;;4.35;;
35128;SDS011;21301;43.626;10.580;2023-08-17T00:28:38;9.00;;;4.30;;
35128;SDS011;21301;43.626;10.580;2023-08-17T00:31:05;6.43;;;3.45;;
35128;SDS011;21301;43.626;10.580;2023-08-17T00:33:31;7.40;;;3.47;;
35128;SDS011;21301;43.626;10.580;2023-08-17T00:35:57;6.60;;;3.80;;
35128;SDS011;21301;43.626;10.580;2023-08-17T00:38:25;7.63;;;4.53;;
35128;SDS011;21301;43.626;10.580;2023-08-17T00:40:53;6.88;;;3.90;;
35128;SDS011;21301;43.626;10.580;2023-08-17T00:43:20;8.02;;;4.60;;
35128;SDS011;21301;43.626;10.580;2023-08-17T00:45:48;6.13;;;4.18;;
35128;SDS011;21301;43.626;10.580;2023-08-17T00:48:18;8.82;;;4.32;;
35128;SDS011;21301;43.626;10.580;2023-08-17T00:50:46;7.68;;;4.15;;
35128;SDS011;21301;43.626;10.580;2023-08-17T00:53:15;7.53;;;4.38;;
35128;SDS011;21301;43.626;10.580;2023-08-17T00:55:42;7.60;;;3.92;;
35128;SDS011;21301;43.626;10.580;2023-08-17T00:58:09;5.28;;;3.53;;
35128;SDS011;21301;43.626;10.580;2023-08-17T01:00:35;7.43;;;4.10;;
35128;SDS011;21301;43.626;10.580;2023-08-17T01:03:02;11.57;;;4.30;;
35128;SDS011;21301;43.626;10.580;2023-08-17T01:05:29;6.13;;;3.67;;
35128;SDS011;21301;43.626;10.580;2023-08-17T01:07:58;9.23;;;4.40;;
35128;SDS011;21301;43.626;10.580;2023-08-17T01:10:26;5.63;;;3.53;;
35128;SDS011;21301;43.626;10.580;2023-08-17T01:13:01;7.18;;;3.90;;
35128;SDS011;21301;43.626;10.580;2023-08-17T01:15:49;6.53;;;4.45;;
35128;SDS011;21301;43.626;10.580;2023-08-17T01:21:14;14.20;;;4.32;;
35128;SDS011;21301;43.626;10.580;2023-08-17T01:23:44;5.57;;;3.80;;
35128;SDS011;21301;43.626;10.580;2023-08-17T01:26:13;5.82;;;3.88;;
35128;SDS011;21301;43.626;10.580;2023-08-17T01:28:45;7.75;;;4.15;;
35128;SDS011;21301;43.626;10.580;2023-08-17T01:31:25;7.38;;;3.72;;
35128;SDS011;21301;43.626;10.580;2023-08-17T01:34:18;6.37;;;3.60;;
35128;SDS011;21301;43.626;10.580;2023-08-17T01:36:53;9.10;;;3.75;;
35128;SDS011;21301;43.626;10.580;2023-08-17T01:39:31;9.48;;;4.10;;
35128;SDS011;21301;43.626;10.580;2023-08-17T01:42:08;12.77;;;4.13;;
35128;SDS011;21301;43.626;10.580;2023-08-17T01:44:37;12.02;;;4.18;;
35128;SDS011;21301;43.626;10.580;2023-08-17T01:50:51;7.82;;;3.33;;
35128;SDS011;21301;43.626;10.580;2023-08-17T01:53:19;5.30;;;3.75;;
35128;SDS011;21301;43.626;10.580;2023-08-17T01:55:45;6.00;;;3.95;;
35128;SDS011;21301;43.626;10.580;2023-08-17T01:58:11;7.30;;;4.05;;
35128;SDS011;21301;43.626;10.580;2023-08-17T02:00:36;6.85;;;3.78;;
35128;SDS011;21301;43.626;10.580;2023-08-17T02:03:02;5.60;;;3.35;;
35128;SDS011;21301;43.626;10.580;2023-08-17T02:05:30;5.63;;;3.53;;
35128;SDS011;21301;43.626;10.580;2023-08-17T02:07:56;6.38;;;3.00;;
35128;SDS011;21301;43.626;10.580;2023-08-17T02:10:22;5.50;;;3.20;;
35128;SDS011;21301;43.626;10.580;2023-08-17T02:12:49;9.05;;;3.75;;
35128;SDS011;21301;43.626;10.580;2023-08-17T02:15:17;5.43;;;3.25;;
35128;SDS011;21301;43.626;10.580;2023-08-17T02:17:44;6.00;;;3.20;;
35128;SDS011;21301;43.626;10.580;2023-08-17T02:20:11;5.07;;;3.17;;
35128;SDS011;21301;43.626;10.580;2023-08-17T02:22:42;5.78;;;3.33;;
35128;SDS011;21301;43.626;10.580;2023-08-17T02:25:08;6.40;;;3.65;;
35128;SDS011;21301;43.626;10.580;2023-08-17T02:27:35;6.63;;;3.30;;
35128;SDS011;21301;43.626;10.580;2023-08-17T02:30:02;5.50;;;3.22;;
35128;SDS011;21301;43.626;10.580;2023-08-17T02:32:29;5.95;;;3.28;;
35128;SDS011;21301;43.626;10.580;2023-08-17T02:34:55;5.60;;;3.60;;
35128;SDS011;21301;43.626;10.580;2023-08-17T02:37:22;6.43;;;3.17;;
35128;SDS011;21301;43.626;10.580;2023-08-17T02:39:49;5.60;;;3.20;;
35128;SDS011;21301;43.626;10.580;2023-08-17T02:42:18;4.93;;;2.97;;
35128;SDS011;21301;43.626;10.580;2023-08-17T02:44:46;7.93;;;3.95;;
35128;SDS011;21301;43.626;10.580;2023-08-17T02:47:14;10.05;;;3.78;;
35128;SDS011;21301;43.626;10.580;2023-08-17T02:49:42;6.13;;;3.47;;
35128;SDS011;21301;43.626;10.580;2023-08-17T02:52:08;5.43;;;3.03;;
35128;SDS011;21301;43.626;10.580;2023-08-17T02:54:35;4.75;;;3.05;;
35128;SDS011;21301;43.626;10.580;2023-08-17T02:57:02;5.47;;;3.25;;
35128;SDS011;21301;43.626;10.580;2023-08-17T02:59:28;5.75;;;3.35;;
35128;SDS011;21301;43.626;10.580;2023-08-17T03:01:54;10.48;;;3.40;;
35128;SDS011;21301;43.626;10.580;2023-08-17T03:04:22;5.68;;;3.20;;
35128;SDS011;21301;43.626;10.580;2023-08-17T03:06:49;7.40;;;3.20;;
35128;SDS011;21301;43.626;10.580;2023-08-17T03:09:15;9.45;;;3.63;;
35128;SDS011;21301;43.626;10.580;2023-08-17T03:11:41;5.28;;;3.20;;
35128;SDS011;21301;43.626;10.580;2023-08-17T03:14:06;6.20;;;3.70;;
35128;SDS011;21301;43.626;10.580;2023-08-17T03:16:34;7.97;;;3.15;;
35128;SDS011;21301;43.626;10.580;2023-08-17T03:19:01;6.15;;;3.50;;
35128;SDS011;21301;43.626;10.580;2023-08-17T03:21:31;7.45;;;3.35;;
35128;SDS011;21301;43.626;10.580;2023-08-17T03:24:00;7.32;;;3.42;;
35128;SDS011;21301;43.626;10.580;2023-08-17T03:26:26;7.13;;;3.33;;
35128;SDS011;21301;43.626;10.580;2023-08-17T03:28:52;7.80;;;3.65;;
35128;SDS011;21301;43.626;10.580;2023-08-17T03:31:22;11.80;;;4.40;;
35128;SDS011;21301;43.626;10.580;2023-08-17T03:33:49;7.07;;;4.15;;
35128;SDS011;21301;43.626;10.580;2023-08-17T03:36:15;7.07;;;4.18;;
35128;SDS011;21301;43.626;10.580;2023-08-17T03:38:42;9.07;;;3.80;;
35128;SDS011;21301;43.626;10.580;2023-08-17T03:41:11;6.38;;;3.10;;
35128;SDS011;21301;43.626;10.580;2023-08-17T03:43:36;5.50;;;3.33;;
35128;SDS011;21301;43.626;10.580;2023-08-17T03:46:07;6.68;;;3.65;;
35128;SDS011;21301;43.626;10.580;2023-08-17T03:48:34;6.85;;;4.28;;
35128;SDS011;21301;43.626;10.580;2023-08-17T03:51:05;5.57;;;3.30;;
35128;SDS011;21301;43.626;10.580;2023-08-17T03:53:34;8.20;;;3.70;;
35128;SDS011;21301;43.626;10.580;2023-08-17T03:56:00;7.93;;;3.65;;
35128;SDS011;21301;43.626;10.580;2023-08-17T03:58:26;6.55;;;3.78;;
35128;SDS011;21301;43.626;10.580;2023-08-17T04:00:58;6.50;;;3.63;;
35128;SDS011;21301;43.626;10.580;2023-08-17T04:03:28;6.75;;;3.97;;
35128;SDS011;21301;43.626;10.580;2023-08-17T04:05:55;5.07;;;3.47;;
35128;SDS011;21301;43.626;10.580;2023-08-17T04:08:22;7.38;;;3.90;;
35128;SDS011;21301;43.626;10.580;2023-08-17T04:10:49;5.53;;;3.95;;
35128;SDS011;21301;43.626;10.580;2023-08-17T04:13:15;6.68;;;4.00;;
35128;SDS011;21301;43.626;10.580;2023-08-17T04:15:42;14.02;;;5.07;;
35128;SDS011;21301;43.626;10.580;2023-08-17T04:18:10;9.13;;;4.50;;
35128;SDS011;21301;43.626;10.580;2023-08-17T04:20:38;8.15;;;3.95;;
35128;SDS011;21301;43.626;10.580;2023-08-17T04:23:05;9.20;;;4.05;;
35128;SDS011;21301;43.626;10.580;2023-08-17T04:25:32;7.97;;;4.25;;
35128;SDS011;21301;43.626;10.580;2023-08-17T04:27:58;10.93;;;4.10;;
35128;SDS011;21301;43.626;10.580;2023-08-17T04:30:24;9.07;;;3.85;;
35128;SDS011;21301;43.626;10.580;2023-08-17T04:32:56;10.00;;;3.85;;
35128;SDS011;21301;43.626;10.580;2023-08-17T04:35:22;8.23;;;3.78;;
35128;SDS011;21301;43.626;10.580;2023-08-17T04:37:48;7.88;;;3.90;;
35128;SDS011;21301;43.626;10.580;2023-08-17T04:40:14;6.68;;;3.15;;
35128;SDS011;21301;43.626;10.580;2023-08-17T04:42:41;6.95;;;3.83;;
35128;SDS011;21301;43.626;10.580;2023-08-17T04:45:09;7.10;;;3.53;;
35128;SDS011;21301;43.626;10.580;2023-08-17T04:47:39;7.05;;;4.43;;
35128;SDS011;21301;43.626;10.580;2023-08-17T04:50:05;6.35;;;4.13;;
35128;SDS011;21301;43.626;10.580;2023-08-17T04:52:34;6.40;;;3.45;;
35128;SDS011;21301;43.626;10.580;2023-08-17T04:55:01;11.73;;;3.53;;
35128;SDS011;21301;43.626;10.580;2023-08-17T04:57:28;7.00;;;3.63;;
35128;SDS011;21301;43.626;10.580;2023-08-17T04:59:57;5.55;;;3.25;;
35128;SDS011;21301;43.626;10.580;2023-08-17T05:02:24;12.82;;;3.63;;
35128;SDS011;21301;43.626;10.580;2023-08-17T05:04:54;9.23;;;3.85;;
35128;SDS011;21301;43.626;10.580;2023-08-17T05:07:20;7.32;;;3.55;;
35128;SDS011;21301;43.626;10.580;2023-08-17T05:09:47;5.05;;;3.35;;
35128;SDS011;21301;43.626;10.580;2023-08-17T05:12:14;7.40;;;3.58;;
35128;SDS011;21301;43.626;10.580;2023-08-17T05:14:43;8.73;;;4.30;;
35128;SDS011;21301;43.626;10.580;2023-08-17T05:17:10;7.80;;;3.38;;
35128;SDS011;21301;43.626;10.580;2023-08-17T05:19:37;7.32;;;3.20;;
35128;SDS011;21301;43.626;10.580;2023-08-17T05:22:09;5.78;;;3.80;;
35128;SDS011;21301;43.626;10.580;2023-08-17T05:24:37;5.38;;;3.42;;
35128;SDS011;21301;43.626;10.580;2023-08-17T05:27:06;6.30;;;3.50;;
35128;SDS011;21301;43.626;10.580;2023-08-17T05:29:34;5.10;;;3.28;;
35128;SDS011;21301;43.626;10.580;2023-08-17T05:32:02;4.88;;;2.95;;
35128;SDS011;21301;43.626;10.580;2023-08-17T05:34:31;7.55;;;3.42;;
35128;SDS011;21301;43.626;10.580;2023-08-17T05:36:57;8.05;;;3.30;;
35128;SDS011;21301;43.626;10.580;2023-08-17T05:39:23;5.97;;;3.30;;
35128;SDS011;21301;43.626;10.580;2023-08-17T05:41:49;5.40;;;3.08;;
35128;SDS011;21301;43.626;10.580;2023-08-17T05:44:17;6.65;;;2.90;;
35128;SDS011;21301;43.626;10.580;2023-08-17T05:46:51;7.85;;;3.60;;
35128;SDS011;21301;43.626;10.580;2023-08-17T05:49:25;8.52;;;3.15;;
35128;SDS011;21301;43.626;10.580;2023-08-17T05:51:52;9.05;;;3.67;;
35128;SDS011;21301;43.626;10.580;2023-08-17T05:54:27;7.32;;;3.78;;
35128;SDS011;21301;43.626;10.580;2023-08-17T06:01:47;6.55;;;2.83;;
35128;SDS011;21301;43.626;10.580;2023-08-17T06:08:00;7.80;;;3.58;;
35128;SDS011;21301;43.626;10.580;2023-08-17T06:10:26;5.75;;;3.20;;
35128;SDS011;21301;43.626;10.580;2023-08-17T06:12:53;6.22;;;3.40;;
35128;SDS011;21301;43.626;10.580;2023-08-17T06:15:24;5.65;;;3.35;;
35128;SDS011;21301;43.626;10.580;2023-08-17T06:17:51;4.78;;;3.03;;
35128;SDS011;21301;43.626;10.580;2023-08-17T06:20:19;7.25;;;3.53;;
35128;SDS011;21301;43.626;10.580;2023-08-17T06:22:46;4.30;;;2.70;;
35128;SDS011;21301;43.626;10.580;2023-08-17T06:25:14;7.50;;;3.15;;
35128;SDS011;21301;43.626;10.580;2023-08-17T06:27:45;7.55;;;3.20;;
35128;SDS011;21301;43.626;10.580;2023-08-17T06:30:15;6.22;;;3.90;;
35128;SDS011;21301;43.626;10.580;2023-08-17T06:32:43;5.97;;;3.22;;
35128;SDS011;21301;43.626;10.580;2023-08-17T06:35:09;5.88;;;3.17;;
35128;SDS011;21301;43.626;10.580;2023-08-17T06:37:36;5.68;;;3.13;;
35128;SDS011;21301;43.626;10.580;2023-08-17T06:40:05;5.50;;;3.20;;
35128;SDS011;21301;43.626;10.580;2023-08-17T06:42:36;8.23;;;4.00;;
35128;SDS011;21301;43.626;10.580;2023-08-17T06:45:05;7.78;;;3.53;;
35128;SDS011;21301;43.626;10.580;2023-08-17T06:47:33;4.70;;;3.10;;
35128;SDS011;21301;43.626;10.580;2023-08-17T06:49:59;6.13;;;3.17;;
35128;SDS011;21301;43.626;10.580;2023-08-17T06:52:25;6.63;;;2.92;;
35128;SDS011;21301;43.626;10.580;2023-08-17T06:54:53;6.03;;;2.92;;
35128;SDS011;21301;43.626;10.580;2023-08-17T06:57:19;10.15;;;3.63;;
35128;SDS011;21301;43.626;10.580;2023-08-17T06:59:47;5.90;;;3.63;;
35128;SDS011;21301;43.626;10.580;2023-08-17T07:02:12;8.98;;;4.65;;
35128;SDS011;21301;43.626;10.580;2023-08-17T07:04:40;10.02;;;4.78;;
35128;SDS011;21301;43.626;10.580;2023-08-17T07:07:07;8.30;;;4.90;;
35128;SDS011;21301;43.626;10.580;2023-08-17T07:09:34;9.82;;;5.55;;
35128;SDS011;21301;43.626;10.580;2023-08-17T07:11:59;8.10;;;5.53;;
35128;SDS011;21301;43.626;10.580;2023-08-17T07:14:26;10.95;;;5.00;;
35128;SDS011;21301;43.626;10.580;2023-08-17T07:16:54;7.32;;;5.00;;
35128;SDS011;21301;43.626;10.580;2023-08-17T07:19:19;7.25;;;4.78;;
35128;SDS011;21301;43.626;10.580;2023-08-17T07:21:45;9.95;;;5.22;;
35128;SDS011;21301;43.626;10.580;2023-08-17T07:24:14;8.50;;;5.30;;
35128;SDS011;21301;43.626;10.580;2023-08-17T07:26:41;9.25;;;5.45;;
35128;SDS011;21301;43.626;10.580;2023-08-17T07:29:08;8.13;;;5.47;;
35128;SDS011;21301;43.626;10.580;2023-08-17T07:31:34;6.45;;;4.85;;
35128;SDS011;21301;43.626;10.580;2023-08-17T07:34:03;14.45;;;5.63;;
35128;SDS011;21301;43.626;10.580;2023-08-17T07:36:30;6.57;;;4.80;;
35128;SDS011;21301;43.626;10.580;2023-08-17T07:38:56;7.90;;;5.18;;
35128;SDS011;21301;43.626;10.580;2023-08-17T07:41:22;8.82;;;5.28;;
35128;SDS011;21301;43.626;10.580;2023-08-17T07:43:48;8.77;;;6.00;;
35128;SDS011;21301;43.626;10.580;2023-08-17T07:46:14;8.85;;;5.35;;
35128;SDS011;21301;43.626;10.580;2023-08-17T07:48:41;10.68;;;6.93;;
35128;SDS011;21301;43.626;10.580;2023-08-17T07:51:06;9.68;;;7.43;;
35128;SDS011;21301;43.626;10.580;2023-08-17T07:53:32;9.15;;;6.88;;
35128;SDS011;21301;43.626;10.580;2023-08-17T07:56:00;9.70;;;6.70;;
35128;SDS011;21301;43.626;10.580;2023-08-17T07:58:29;12.60;;;7.05;;
35128;SDS011;21301;43.626;10.580;2023-08-17T08:00:55;11.43;;;6.22;;
35128;SDS011;21301;43.626;10.580;2023-08-17T08:03:24;9.98;;;6.22;;
35128;SDS011;21301;43.626;10.580;2023-08-17T08:05:50;9.77;;;5.63;;
35128;SDS011;21301;43.626;10.580;2023-08-17T08:08:16;8.82;;;6.15;;
35128;SDS011;21301;43.626;10.580;2023-08-17T08:10:42;10.07;;;6.25;;
35128;SDS011;21301;43.626;10.580;2023-08-17T08:13:09;9.75;;;5.97;;
35128;SDS011;21301;43.626;10.580;2023-08-17T08:15:37;9.80;;;5.15;;
35128;SDS011;21301;43.626;10.580;2023-08-17T08:18:03;6.25;;;4.97;;
35128;SDS011;21301;43.626;10.580;2023-08-17T08:20:30;9.65;;;4.63;;
35128;SDS011;21301;43.626;10.580;2023-08-17T08:22:57;11.45;;;5.20;;
35128;SDS011;21301;43.626;10.580;2023-08-17T08:25:24;8.32;;;4.78;;
35128;SDS011;21301;43.626;10.580;2023-08-17T08:27:50;6.05;;;4.20;;
35128;SDS011;21301;43.626;10.580;2023-08-17T08:30:16;7.25;;;4.68;;
35128;SDS011;21301;43.626;10.580;2023-08-17T08:32:43;7.22;;;4.75;;
35128;SDS011;21301;43.626;10.580;2023-08-17T08:35:10;7.00;;;4.40;;
35128;SDS011;21301;43.626;10.580;2023-08-17T08:37:37;6.70;;;4.43;;
35128;SDS011;21301;43.626;10.580;2023-08-17T08:40:03;8.25;;;5.22;;
35128;SDS011;21301;43.626;10.580;2023-08-17T08:42:37;7.13;;;3.55;;
35128;SDS011;21301;43.626;10.580;2023-08-17T08:45:04;6.75;;;4.50;;
35128;SDS011;21301;43.626;10.580;2023-08-17T08:47:32;6.28;;;4.50;;
35128;SDS011;21301;43.626;10.580;2023-08-17T08:50:02;7.65;;;4.35;;
35128;SDS011;21301;43.626;10.580;2023-08-17T08:52:40;10.05;;;5.25;;
35128;SDS011;21301;43.626;10.580;2023-08-17T08:55:21;10.63;;;5.88;;
35128;SDS011;21301;43.626;10.580;2023-08-17T08:57:54;12.38;;;6.78;;
35128;SDS011;21301;43.626;10.580;2023-08-17T09:00:21;9.60;;;4.22;;
35128;SDS011;21301;43.626;10.580;2023-08-17T09:02:50;7.25;;;4.63;;
35128;SDS011;21301;43.626;10.580;2023-08-17T09:05:17;9.45;;;6.18;;
35128;SDS011;21301;43.626;10.580;2023-08-17T09:07:44;9.95;;;5.63;;
35128;SDS011;21301;43.626;10.580;2023-08-17T09:10:14;7.90;;;4.85;;
35128;SDS011;21301;43.626;10.580;2023-08-17T09:15:14;7.20;;;4.43;;
35128;SDS011;21301;43.626;10.580;2023-08-17T09:17:43;7.68;;;3.97;;
35128;SDS011;21301;43.626;10.580;2023-08-17T09:20:10;8.10;;;4.57;;
35128;SDS011;21301;43.626;10.580;2023-08-17T09:22:43;7.93;;;4.95;;
35128;SDS011;21301;43.626;10.580;2023-08-17T09:25:09;13.13;;;6.13;;
35128;SDS011;21301;43.626;10.580;2023-08-17T09:27:47;13.38;;;8.57;;
35128;SDS011;21301;43.626;10.580;2023-08-17T09:30:14;7.88;;;5.20;;
35128;SDS011;21301;43.626;10.580;2023-08-17T09:32:41;17.50;;;10.38;;
35128;SDS011;21301;43.626;10.580;2023-08-17T09:35:07;18.27;;;12.82;;
35128;SDS011;21301;43.626;10.580;2023-08-17T09:37:37;8.68;;;5.93;;
35128;SDS011;21301;43.626;10.580;2023-08-17T09:40:13;11.85;;;7.60;;
35128;SDS011;21301;43.626;10.580;2023-08-17T09:42:40;8.18;;;5.70;;
35128;SDS011;21301;43.626;10.580;2023-08-17T09:45:08;14.13;;;10.15;;
35128;SDS011;21301;43.626;10.580;2023-08-17T09:47:34;9.57;;;5.38;;
35128;SDS011;21301;43.626;10.580;2023-08-17T09:50:00;11.65;;;5.47;;
35128;SDS011;21301;43.626;10.580;2023-08-17T09:52:38;8.57;;;4.80;;
35128;SDS011;21301;43.626;10.580;2023-08-17T09:55:04;10.00;;;5.00;;
35128;SDS011;21301;43.626;10.580;2023-08-17T09:57:36;8.65;;;5.78;;
35128;SDS011;21301;43.626;10.580;2023-08-17T10:02:52;11.60;;;7.30;;
35128;SDS011;21301;43.626;10.580;2023-08-17T10:05:29;9.05;;;5.65;;
35128;SDS011;21301;43.626;10.580;2023-08-17T10:07:58;8.45;;;5.22;;
35128;SDS011;21301;43.626;10.580;2023-08-17T10:10:27;7.63;;;4.88;;
35128;SDS011;21301;43.626;10.580;2023-08-17T10:15:25;8.95;;;5.03;;
35128;SDS011;21301;43.626;10.580;2023-08-17T10:18:00;7.95;;;4.65;;
35128;SDS011;21301;43.626;10.580;2023-08-17T10:20:37;11.13;;;4.97;;
35128;SDS011;21301;43.626;10.580;2023-08-17T10:23:19;12.23;;;5.60;;
35128;SDS011;21301;43.626;10.580;2023-08-17T10:25:50;8.32;;;5.03;;
35128;SDS011;21301;43.626;10.580;2023-08-17T10:28:24;11.23;;;6.03;;
35128;SDS011;21301;43.626;10.580;2023-08-17T10:30:51;9.02;;;5.63;;
35128;SDS011;21301;43.626;10.580;2023-08-17T10:33:17;7.75;;;5.43;;
35128;SDS011;21301;43.626;10.580;2023-08-17T10:35:49;7.80;;;4.57;;
35128;SDS011;21301;43.626;10.580;2023-08-17T10:38:15;8.13;;;5.93;;
35128;SDS011;21301;43.626;10.580;2023-08-17T10:40:43;7.38;;;5.45;;
35128;SDS011;21301;43.626;10.580;2023-08-17T10:43:10;8.57;;;4.50;;
35128;SDS011;21301;43.626;10.580;2023-08-17T10:45:42;11.90;;;5.80;;
35128;SDS011;21301;43.626;10.580;2023-08-17T10:50:44;9.07;;;4.93;;
35128;SDS011;21301;43.626;10.580;2023-08-17T10:53:26;6.82;;;4.88;;
35128;SDS011;21301;43.626;10.580;2023-08-17T10:55:57;10.70;;;5.15;;
35128;SDS011;21301;43.626;10.580;2023-08-17T10:58:25;9.00;;;5.70;;
35128;SDS011;21301;43.626;10.580;2023-08-17T11:00:54;9.57;;;5.55;;
35128;SDS011;21301;43.626;10.580;2023-08-17T11:03:23;6.70;;;4.45;;
35128;SDS011;21301;43.626;10.580;2023-08-17T11:05:53;7.65;;;5.03;;
35128;SDS011;21301;43.626;10.580;2023-08-17T11:08:33;7.57;;;4.80;;
35128;SDS011;21301;43.626;10.580;2023-08-17T11:13:45;6.68;;;4.95;;
35128;SDS011;21301;43.626;10.580;2023-08-17T11:16:15;9.10;;;5.03;;
35128;SDS011;21301;43.626;10.580;2023-08-17T11:18:48;6.22;;;4.65;;
35128;SDS011;21301;43.626;10.580;2023-08-17T11:21:16;8.32;;;4.88;;
35128;SDS011;21301;43.626;10.580;2023-08-17T11:23:44;28.70;;;5.80;;
35128;SDS011;21301;43.626;10.580;2023-08-17T11:26:10;5.10;;;4.20;;
35128;SDS011;21301;43.626;10.580;2023-08-17T11:28:36;6.80;;;4.82;;
35128;SDS011;21301;43.626;10.580;2023-08-17T11:31:09;12.73;;;4.82;;
35128;SDS011;21301;43.626;10.580;2023-08-17T11:33:42;7.53;;;4.60;;
35128;SDS011;21301;43.626;10.580;2023-08-17T11:36:08;8.38;;;5.57;;
35128;SDS011;21301;43.626;10.580;2023-08-17T11:38:36;8.63;;;5.72;;
35128;SDS011;21301;43.626;10.580;2023-08-17T11:41:06;7.40;;;5.00;;
35128;SDS011;21301;43.626;10.580;2023-08-17T11:43:34;10.00;;;5.57;;
35128;SDS011;21301;43.626;10.580;2023-08-17T11:46:01;9.35;;;5.28;;
35128;SDS011;21301;43.626;10.580;2023-08-17T11:48:27;9.13;;;5.80;;
35128;SDS011;21301;43.626;10.580;2023-08-17T11:50:54;7.85;;;5.35;;
35128;SDS011;21301;43.626;10.580;2023-08-17T11:55:49;12.95;;;5.93;;
35128;SDS011;21301;43.626;10.580;2023-08-17T11:58:17;7.72;;;6.10;;
35128;SDS011;21301;43.626;10.580;2023-08-17T12:00:45;10.27;;;5.13;;
35128;SDS011;21301;43.626;10.580;2023-08-17T12:03:13;9.07;;;5.43;;
35128;SDS011;21301;43.626;10.580;2023-08-17T12:05:49;9.55;;;5.55;;
35128;SDS011;21301;43.626;10.580;2023-08-17T12:08:16;8.10;;;5.45;;
35128;SDS011;21301;43.626;10.580;2023-08-17T12:10:44;9.93;;;5.63;;
35128;SDS011;21301;43.626;10.580;2023-08-17T12:13:11;9.98;;;5.10;;
35128;SDS011;21301;43.626;10.580;2023-08-17T12:15:39;9.05;;;5.32;;
35128;SDS011;21301;43.626;10.580;2023-08-17T12:18:06;9.27;;;5.95;;
35128;SDS011;21301;43.626;10.580;2023-08-17T12:20:33;8.80;;;4.97;;
35128;SDS011;21301;43.626;10.580;2023-08-17T12:23:05;9.73;;;5.78;;
35128;SDS011;21301;43.626;10.580;2023-08-17T12:25:31;10.57;;;5.78;;
35128;SDS011;21301;43.626;10.580;2023-08-17T12:28:00;9.93;;;5.82;;
35128;SDS011;21301;43.626;10.580;2023-08-17T12:30:27;7.28;;;6.20;;
35128;SDS011;21301;43.626;10.580;2023-08-17T12:32:57;10.13;;;5.95;;
35128;SDS011;21301;43.626;10.580;2023-08-17T12:35:24;9.07;;;6.03;;
35128;SDS011;21301;43.626;10.580;2023-08-17T12:37:52;9.63;;;6.40;;
35128;SDS011;21301;43.626;10.580;2023-08-17T12:40:18;8.48;;;5.90;;
35128;SDS011;21301;43.626;10.580;2023-08-17T12:42:46;11.32;;;7.35;;
35128;SDS011;21301;43.626;10.580;2023-08-17T12:45:14;8.43;;;5.93;;
35128;SDS011;21301;43.626;10.580;2023-08-17T12:47:44;9.15;;;6.10;;
35128;SDS011;21301;43.626;10.580;2023-08-17T12:50:11;10.15;;;6.40;;
35128;SDS011;21301;43.626;10.580;2023-08-17T12:52:37;10.77;;;5.53;;
35128;SDS011;21301;43.626;10.580;2023-08-17T12:55:03;7.30;;;6.00;;
35128;SDS011;21301;43.626;10.580;2023-08-17T12:57:29;8.70;;;5.68;;
35128;SDS011;21301;43.626;10.580;2023-08-17T12:59:58;7.60;;;5.25;;
35128;SDS011;21301;43.626;10.580;2023-08-17T13:02:27;8.25;;;5.38;;
35128;SDS011;21301;43.626;10.580;2023-08-17T13:05:07;11.73;;;5.25;;
35128;SDS011;21301;43.626;10.580;2023-08-17T13:07:34;7.28;;;5.43;;
35128;SDS011;21301;43.626;10.580;2023-08-17T13:10:01;9.65;;;6.20;;
35128;SDS011;21301;43.626;10.580;2023-08-17T13:12:27;8.05;;;6.57;;
35128;SDS011;21301;43.626;10.580;2023-08-17T13:14:57;11.48;;;5.90;;
35128;SDS011;21301;43.626;10.580;2023-08-17T13:17:24;11.57;;;6.38;;
35128;SDS011;21301;43.626;10.580;2023-08-17T13:19:50;7.50;;;5.63;;
35128;SDS011;21301;43.626;10.580;2023-08-17T13:22:16;8.70;;;5.63;;
35128;SDS011;21301;43.626;10.580;2023-08-17T13:24:45;8.63;;;5.38;;
35128;SDS011;21301;43.626;10.580;2023-08-17T13:27:18;7.88;;;6.20;;
35128;SDS011;21301;43.626;10.580;2023-08-17T13:29:47;8.27;;;6.43;;
35128;SDS011;21301;43.626;10.580;2023-08-17T13:32:13;6.95;;;5.55;;
35128;SDS011;21301;43.626;10.580;2023-08-17T13:34:39;8.73;;;5.63;;
35128;SDS011;21301;43.626;10.580;2023-08-17T13:37:06;9.48;;;6.22;;
35128;SDS011;21301;43.626;10.580;2023-08-17T13:39:32;8.45;;;5.82;;
35128;SDS011;21301;43.626;10.580;2023-08-17T13:41:58;7.38;;;5.85;;
35128;SDS011;21301;43.626;10.580;2023-08-17T13:44:27;9.25;;;5.68;;
35128;SDS011;21301;43.626;10.580;2023-08-17T13:46:54;6.63;;;5.50;;
35128;SDS011;21301;43.626;10.580;2023-08-17T13:49:20;7.40;;;5.70;;
35128;SDS011;21301;43.626;10.580;2023-08-17T13:51:45;7.35;;;5.38;;
35128;SDS011;21301;43.626;10.580;2023-08-17T13:54:16;8.18;;;5.28;;
35128;SDS011;21301;43.626;10.580;2023-08-17T13:56:42;6.18;;;5.07;;
35128;SDS011;21301;43.626;10.580;2023-08-17T13:59:09;7.20;;;5.28;;
35128;SDS011;21301;43.626;10.580;2023-08-17T14:01:35;7.75;;;5.78;;
35128;SDS011;21301;43.626;10.580;2023-08-17T14:04:07;7.47;;;5.50;;
35128;SDS011;21301;43.626;10.580;2023-08-17T14:06:39;6.97;;;5.55;;
35128;SDS011;21301;43.626;10.580;2023-08-17T14:09:07;9.63;;;5.53;;
35128;SDS011;21301;43.626;10.580;2023-08-17T14:11:38;7.65;;;5.07;;
35128;SDS011;21301;43.626;10.580;2023-08-17T14:14:05;8.77;;;5.50;;
35128;SDS011;21301;43.626;10.580;2023-08-17T14:16:33;7.47;;;5.38;;
35128;SDS011;21301;43.626;10.580;2023-08-17T14:18:59;7.03;;;5.63;;
35128;SDS011;21301;43.626;10.580;2023-08-17T14:21:26;8.73;;;5.30;;
35128;SDS011;21301;43.626;10.580;2023-08-17T14:23:55;8.65;;;5.50;;
35128;SDS011;21301;43.626;10.580;2023-08-17T14:26:24;6.60;;;5.38;;
35128;SDS011;21301;43.626;10.580;2023-08-17T14:28:52;6.25;;;4.72;;
35128;SDS011;21301;43.626;10.580;2023-08-17T14:31:17;7.93;;;5.63;;
35128;SDS011;21301;43.626;10.580;2023-08-17T14:33:44;6.85;;;5.80;;
35128;SDS011;21301;43.626;10.580;2023-08-17T14:36:18;9.02;;;5.35;;
35128;SDS011;21301;43.626;10.580;2023-08-17T14:38:49;10.25;;;5.90;;
35128;SDS011;21301;43.626;10.580;2023-08-17T14:41:16;6.22;;;5.22;;
35128;SDS011;21301;43.626;10.580;2023-08-17T14:43:42;7.90;;;6.03;;
35128;SDS011;21301;43.626;10.580;2023-08-17T14:46:08;8.82;;;5.55;;
35128;SDS011;21301;43.626;10.580;2023-08-17T14:48:35;8.93;;;6.45;;
35128;SDS011;21301;43.626;10.580;2023-08-17T14:51:01;8.25;;;5.60;;
35128;SDS011;21301;43.626;10.580;2023-08-17T14:53:27;7.22;;;5.38;;
35128;SDS011;21301;43.626;10.580;2023-08-17T14:55:54;7.63;;;5.68;;
35128;SDS011;21301;43.626;10.580;2023-08-17T14:58:20;7.38;;;5.85;;
35128;SDS011;21301;43.626;10.580;2023-08-17T15:00:46;7.95;;;5.22;;
35128;SDS011;21301;43.626;10.580;2023-08-17T15:03:14;8.00;;;5.63;;
35128;SDS011;21301;43.626;10.580;2023-08-17T15:05:44;8.07;;;6.60;;
35128;SDS011;21301;43.626;10.580;2023-08-17T15:08:10;8.80;;;5.13;;
35128;SDS011;21301;43.626;10.580;2023-08-17T15:10:36;6.75;;;5.38;;
35128;SDS011;21301;43.626;10.580;2023-08-17T15:13:04;8.75;;;5.57;;